Time;durP1;ratioP1;P1;durP2;ratioP2;P2;SDS_P1;SDS_P2;PMS_P1;PMS_P2;Temp;Humidity;BMP_temperature;BMP_pressure;BME280_temperature;BME280_humidity;BME280_pressure;Samples;Min_cycle;Max_cycle;Signal;HPM_P1;HPM_P2
2021/05/18 00:02:12;;;;;;;1.07;0.67;;;;;;;9.57;100.00;95892.63;5037038;28;20235;-68
2021/05/18 00:04:38;;;;;;;2.70;0.80;;;;;;;9.55;100.00;95894.63;5036725;28;20640;-68
2021/05/18 00:07:05;;;;;;;1.20;0.70;;;;;;;9.59;100.00;95907.22;5036129;28;20197;-69
2021/05/18 00:12:16;;;;;;;1.43;0.70;;;;;;;9.54;100.00;95898.25;5036822;28;20726;-68
2021/05/18 00:14:42;;;;;;;1.17;0.50;;;;;;;9.46;100.00;95906.22;5037114;28;20213;-69
2021/05/18 00:17:08;;;;;;;1.20;0.50;;;;;;;9.50;100.00;95904.88;5036517;28;20201;-69
2021/05/18 00:19:34;;;;;;;2.10;0.60;;;;;;;9.53;100.00;95904.50;5036996;28;20606;-69
2021/05/18 00:22:00;;;;;;;1.00;0.60;;;;;;;9.51;100.00;95907.31;5036960;28;20316;-68
2021/05/18 00:24:26;;;;;;;3.33;0.70;;;;;;;9.51;100.00;95903.84;5036753;28;20331;-68
2021/05/18 00:26:54;;;;;;;0.57;0.50;;;;;;;9.53;100.00;95907.13;5036343;28;20216;-69
2021/05/18 00:29:20;;;;;;;1.23;0.60;;;;;;;9.62;100.00;95913.94;5036385;28;20229;-69
2021/05/18 00:31:46;;;;;;;0.73;0.60;;;;;;;9.62;100.00;95914.75;5036871;28;20243;-68
2021/05/18 00:34:12;;;;;;;3.43;0.47;;;;;;;9.62;100.00;95916.56;5037242;28;20761;-68
2021/05/18 00:36:38;;;;;;;1.53;0.40;;;;;;;9.64;100.00;95915.41;5035679;28;20231;-68
2021/05/18 00:39:05;;;;;;;0.70;0.50;;;;;;;9.65;100.00;95921.47;5036257;28;20197;-68
2021/05/18 00:41:31;;;;;;;1.77;0.40;;;;;;;9.61;100.00;95921.03;5037704;28;20224;-69
2021/05/18 00:43:58;;;;;;;1.83;0.50;;;;;;;9.58;100.00;95921.38;5035893;28;20744;-68
2021/05/18 00:46:25;;;;;;;0.73;0.40;;;;;;;9.58;100.00;95921.38;5035813;28;20278;-68
2021/05/18 00:48:56;;;;;;;1.63;0.50;;;;;;;9.54;100.00;95922.72;5036819;28;20631;-68
2021/05/18 00:51:24;;;;;;;0.90;0.40;;;;;;;9.55;100.00;95923.56;5036699;28;21039;-68
2021/05/18 00:53:50;;;;;;;1.47;0.40;;;;;;;9.52;100.00;95918.63;5035505;28;20267;-68
2021/05/18 00:56:31;;;;;;;2.30;0.50;;;;;;;9.53;100.00;95915.03;5035687;28;20209;-67
2021/05/18 00:59:00;;;;;;;0.60;0.50;;;;;;;9.51;100.00;95925.72;5036547;28;20197;-68
2021/05/18 01:01:26;;;;;;;1.77;0.60;;;;;;;9.49;100.00;95925.06;5036050;28;20240;-68
2021/05/18 01:03:54;;;;;;;0.40;0.37;;;;;;;9.48;100.00;95926.09;5036616;28;20205;-68
2021/05/18 01:06:25;;;;;;;0.50;0.50;;;;;;;9.51;100.00;95927.50;5035873;28;20296;-68
2021/05/18 01:08:53;;;;;;;0.57;0.40;;;;;;;9.48;100.00;95925.25;5035941;28;20225;-68
2021/05/18 01:11:22;;;;;;;2.10;0.40;;;;;;;9.48;100.00;95922.63;5036236;28;20710;-68
2021/05/18 01:13:49;;;;;;;0.40;0.40;;;;;;;9.47;100.00;95926.25;5036473;28;20256;-68
2021/05/18 01:16:16;;;;;;;0.60;0.50;;;;;;;9.45;100.00;95930.88;5035234;28;20688;-69
2021/05/18 01:18:45;;;;;;;3.20;0.70;;;;;;;9.51;100.00;95932.78;5036350;28;20592;-68
2021/05/18 01:21:13;;;;;;;1.70;0.40;;;;;;;9.50;100.00;95934.59;5036216;28;20217;-69
2021/05/18 01:23:40;;;;;;;3.53;0.70;;;;;;;9.52;100.00;95937.88;5036131;28;20279;-68
2021/05/18 01:26:06;;;;;;;0.73;0.50;;;;;;;9.52;100.00;95937.88;5035374;28;20201;-68
2021/05/18 01:28:33;;;;;;;0.73;0.40;;;;;;;9.50;100.00;95939.06;5035956;28;20209;-68
2021/05/18 01:31:00;;;;;;;0.97;0.53;;;;;;;9.49;100.00;95940.03;5035585;28;20236;-68
2021/05/18 01:33:27;;;;;;;0.90;0.60;;;;;;;9.45;100.00;95936.94;5035888;28;20209;-67
2021/05/18 01:35:54;;;;;;;0.97;0.70;;;;;;;9.50;100.00;95944.31;5035568;28;20266;-68
2021/05/18 01:38:26;;;;;;;0.57;0.50;;;;;;;9.45;100.00;95950.09;5035835;28;20626;-68
2021/05/18 01:43:53;;;;;;;0.60;0.60;;;;;;;9.44;100.00;95955.53;4974083;28;20226;-68
2021/05/18 01:46:21;;;;;;;1.47;0.67;;;;;;;9.40;100.00;95962.16;4973496;28;20748;-68
2021/05/18 01:48:52;;;;;;;3.43;0.80;;;;;;;9.37;100.00;95957.25;5001784;28;21115;-68
2021/05/18 01:51:18;;;;;;;0.70;0.60;;;;;;;9.38;100.00;95964.13;5035536;28;20998;-69
2021/05/18 01:53:45;;;;;;;0.80;0.70;;;;;;;9.35;100.00;95960.03;5035819;28;20307;-68
2021/05/18 01:56:29;;;;;;;1.87;0.90;;;;;;;9.29;100.00;95952.88;5035521;28;20202;-68
2021/05/18 01:59:02;;;;;;;1.23;0.80;;;;;;;9.25;100.00;95958.63;5035758;28;20295;-68
2021/05/18 02:01:28;;;;;;;0.83;0.60;;;;;;;9.26;100.00;95958.44;5035658;28;20229;-68
2021/05/18 02:03:54;;;;;;;1.40;0.63;;;;;;;9.25;100.00;95961.25;5035625;28;20229;-68
2021/05/18 02:06:20;;;;;;;1.57;0.70;;;;;;;9.21;100.00;95960.78;5039500;28;20301;-68
2021/05/18 02:08:47;;;;;;;1.80;0.70;;;;;;;9.26;100.00;95960.28;5038890;28;20623;-68
2021/05/18 02:11:13;;;;;;;1.47;1.00;;;;;;;9.26;100.00;95962.91;5038888;28;20221;-68
2021/05/18 02:13:44;;;;;;;1.63;0.80;;;;;;;9.23;100.00;95961.44;5039741;28;20208;-68
2021/05/18 02:16:16;;;;;;;2.80;1.17;;;;;;;9.20;100.00;95964.44;5038757;28;20201;-68
2021/05/18 02:19:01;;;;;;;2.47;0.97;;;;;;;9.19;100.00;95957.53;5038977;28;21164;-68
2021/05/18 02:21:38;;;;;;;1.20;0.90;;;;;;;9.27;100.00;95964.53;5038718;28;20711;-68
2021/05/18 02:26:50;;;;;;;1.83;0.70;;;;;;;9.27;100.00;95959.28;5038092;28;20271;-68
2021/05/18 02:29:16;;;;;;;0.97;0.83;;;;;;;9.26;100.00;95963.72;5039045;28;20264;-68
2021/05/18 02:31:43;;;;;;;0.93;0.87;;;;;;;9.28;100.00;95976.72;5039141;28;20958;-68
2021/05/18 02:34:09;;;;;;;0.90;0.90;;;;;;;9.28;100.00;95972.25;5038813;28;20619;-68
2021/05/18 02:36:35;;;;;;;2.03;1.00;;;;;;;9.27;100.00;95972.44;5038018;28;20254;-69
2021/05/18 02:39:01;;;;;;;3.13;1.13;;;;;;;9.27;100.00;95972.44;5038346;28;20205;-68
2021/05/18 02:41:28;;;;;;;1.57;1.17;;;;;;;9.27;100.00;95975.06;5038890;28;20257;-69
2021/05/18 02:43:56;;;;;;;2.67;1.00;;;;;;;9.29;100.00;95975.69;5038575;28;20202;-68
2021/05/18 02:49:09;;;;;;;1.63;1.00;;;;;;;9.21;100.00;95973.13;5038340;28;20217;-67
2021/05/18 02:51:36;;;;;;;1.57;0.93;;;;;;;9.23;100.00;95977.22;5038140;28;20245;-68
2021/05/18 02:54:02;;;;;;;1.40;0.93;;;;;;;9.24;100.00;95972.75;5038437;28;20216;-69
2021/05/18 02:56:33;;;;;;;2.40;1.10;;;;;;;9.26;100.00;95973.41;5037810;28;20931;-68
2021/05/18 02:59:08;;;;;;;2.07;1.03;;;;;;;9.24;100.00;95978.03;5038507;28;20217;-68
2021/05/18 03:01:35;;;;;;;1.07;0.90;;;;;;;9.29;100.00;95978.31;5037767;28;20221;-69
2021/05/18 03:04:01;;;;;;;0.80;0.80;;;;;;;9.26;100.00;95976.06;5038494;28;20263;-69
2021/05/18 03:06:27;;;;;;;1.63;0.80;;;;;;;9.22;100.00;95974.78;5038139;28;20205;-68
2021/05/18 03:08:53;;;;;;;2.23;0.97;;;;;;;9.23;100.00;95976.41;5037558;28;21081;-69
2021/05/18 03:11:19;;;;;;;1.00;0.90;;;;;;;9.27;100.00;95975.88;5038077;28;20304;-68
2021/05/18 03:13:46;;;;;;;1.27;1.07;;;;;;;9.20;100.00;95979.38;5038786;28;20205;-68
2021/05/18 03:16:12;;;;;;;2.43;0.77;;;;;;;9.17;100.00;95979.72;5036882;28;20267;-68
2021/05/18 03:18:39;;;;;;;1.73;0.77;;;;;;;9.17;100.00;95990.25;5037968;28;20211;-68
2021/05/18 03:21:05;;;;;;;1.90;0.80;;;;;;;9.22;100.00;95993.16;5037461;28;21057;-68
2021/05/18 03:23:31;;;;;;;1.27;0.80;;;;;;;9.24;100.00;95999.06;5038253;28;20228;-67
2021/05/18 03:25:57;;;;;;;0.97;0.93;;;;;;;9.20;100.00;95993.34;5037326;28;21310;-68
2021/05/18 03:28:23;;;;;;;1.23;0.80;;;;;;;9.24;100.00;96002.53;5037702;28;20211;-67
2021/05/18 03:30:55;;;;;;;2.80;1.00;;;;;;;9.27;100.00;95996.91;5037947;28;20229;-68
2021/05/18 03:36:06;;;;;;;4.27;0.60;;;;;;;9.24;100.00;96006.94;5037143;28;20258;-68
2021/05/18 03:38:36;;;;;;;1.07;0.70;;;;;;;9.25;100.00;96009.41;5037826;28;20240;-68
2021/05/18 03:41:07;;;;;;;0.90;0.70;;;;;;;9.18;100.00;96007.66;5037215;28;20217;-68
2021/05/18 03:43:53;;;;;;;1.60;0.70;;;;;;;9.19;100.00;96004.84;5037670;28;20324;-68
2021/05/18 03:54:44;;;;;;;2.33;1.20;;;;;;;9.18;100.00;96007.66;5037643;28;20979;-68
2021/05/18 04:02:57;;;;;;;0.87;0.73;;;;;;;9.17;100.00;96012.09;5000924;28;20208;-69
2021/05/18 04:11:30;;;;;;;2.20;0.70;;;;;;;9.25;100.00;96014.69;5037176;28;20259;-68
2021/05/18 04:16:56;;;;;;;1.80;0.70;;;;;;;9.27;100.00;96017.13;5036359;28;20322;-68
2021/05/18 04:19:27;;;;;;;2.37;0.80;;;;;;;9.23;100.00;96023.72;5036781;28;20205;-68
2021/05/18 04:22:06;;;;;;;1.03;0.90;;;;;;;9.26;100.00;96018.13;5036621;28;20229;-68
2021/05/18 04:52:02;;;;;;;2.67;1.77;;;;;;;8.91;100.00;96029.16;5036333;28;20282;-67
2021/05/18 05:00:11;;;;;;;3.23;1.30;;;;;;;8.96;100.00;96040.00;5036492;28;20686;-68
2021/05/18 05:03:00;;;;;;;3.13;0.90;;;;;;;9.01;100.00;96045.50;5036366;28;20205;-67
2021/05/18 05:08:10;;;;;;;1.63;1.10;;;;;;;9.16;100.00;96043.81;5023310;28;20545;-68
2021/05/18 05:16:05;;;;;;;3.13;1.63;;;;;;;9.35;100.00;96052.06;5036118;28;20220;-68
2021/05/18 05:18:30;;;;;;;2.73;1.40;;;;;;;9.32;100.00;96056.88;5036728;28;20282;-68
2021/05/18 05:20:56;;;;;;;2.90;1.80;;;;;;;9.39;100.00;96061.22;5036404;28;20707;-68
2021/05/18 05:23:23;;;;;;;1.70;0.77;;;;;;;9.36;100.00;96073.94;5036808;28;20304;-68
2021/05/18 05:25:49;;;;;;;1.57;0.90;;;;;;;9.32;100.00;96070.03;5035712;28;20219;-67
2021/05/18 05:28:15;;;;;;;1.03;0.90;;;;;;;9.32;100.00;96067.38;5036465;28;21190;-67
2021/05/18 05:30:41;;;;;;;1.73;1.30;;;;;;;9.39;100.00;96068.31;5036511;28;20261;-68
2021/05/18 05:33:07;;;;;;;1.67;1.00;;;;;;;9.47;100.00;96070.88;5037083;28;20197;-67
2021/05/18 05:35:33;;;;;;;3.10;1.23;;;;;;;9.43;100.00;96074.84;5035333;28;20686;-67
2021/05/18 05:37:59;;;;;;;1.87;1.13;;;;;;;9.40;100.00;96072.59;5036585;28;20248;-68
2021/05/18 05:40:26;;;;;;;1.60;1.03;;;;;;;9.42;100.00;96073.22;5039020;28;20662;-67
2021/05/18 05:42:52;;;;;;;1.73;1.37;;;;;;;9.43;100.00;96069.59;5039864;28;20210;-67
2021/05/18 05:45:18;;;;;;;2.57;1.10;;;;;;;9.46;100.00;96075.34;5039603;28;20248;-67
2021/05/18 05:47:44;;;;;;;1.53;1.20;;;;;;;9.51;100.00;96075.63;5040107;28;20205;-68
2021/05/18 05:50:11;;;;;;;1.30;1.20;;;;;;;9.49;100.00;96074.97;5039635;28;20264;-67
2021/05/18 05:52:37;;;;;;;2.20;1.30;;;;;;;9.71;100.00;96088.16;5040627;28;20213;-68
2021/05/18 05:55:05;;;;;;;1.73;1.17;;;;;;;9.83;100.00;96084.13;5038651;28;20220;-68
2021/05/18 05:57:32;;;;;;;2.70;1.10;;;;;;;9.93;100.00;96079.44;5040545;28;20255;-68
2021/05/18 05:59:58;;;;;;;3.17;1.50;;;;;;;10.18;100.00;96077.44;5039785;28;20197;-68
2021/05/18 06:02:24;;;;;;;1.63;1.00;;;;;;;10.23;100.00;96075.91;5039602;28;20221;-68
2021/05/18 06:04:49;;;;;;;2.40;1.30;;;;;;;10.21;100.00;96077.91;5040182;28;20208;-68
2021/05/18 06:07:15;;;;;;;1.10;0.80;;;;;;;10.13;100.00;96088.53;5038710;28;20205;-67
2021/05/18 06:09:42;;;;;;;2.93;1.20;;;;;;;10.22;100.00;96079.56;5040260;28;20319;-68
2021/05/18 06:12:20;;;;;;;2.93;1.10;;;;;;;10.25;100.00;96088.91;5038861;28;20345;-67
2021/05/18 06:14:56;;;;;;;1.07;0.80;;;;;;;10.28;100.00;96094.63;5039435;28;20201;-67
2021/05/18 06:37:07;;;;;;;1.50;1.00;;;;;;;10.62;100.00;96100.22;5035446;28;20570;-68
2021/05/18 06:42:34;;;;;;;2.23;0.80;;;;;;;10.59;100.00;96108.47;5039045;28;20262;-68
2021/05/18 06:47:57;;;;;;;1.60;0.70;;;;;;;10.49;100.00;96107.94;4976997;28;20246;-67
2021/05/18 06:50:29;;;;;;;5.20;0.80;;;;;;;10.54;100.00;96113.50;5022858;28;20232;-67
2021/05/18 06:52:56;;;;;;;1.20;0.90;;;;;;;10.51;100.00;96111.19;5037868;28;20258;-67
2021/05/18 06:55:27;;;;;;;1.13;0.80;;;;;;;10.41;100.00;96115.91;5037916;28;20667;-68
2021/05/18 06:58:02;;;;;;;1.00;0.77;;;;;;;10.32;100.00;96119.59;5038652;28;20209;-68
2021/05/18 07:00:28;;;;;;;2.70;0.83;;;;;;;10.30;100.00;96129.50;5038525;28;20204;-67
2021/05/18 07:02:56;;;;;;;1.37;0.90;;;;;;;10.29;100.00;96124.44;5038398;28;20220;-68
2021/05/18 07:05:30;;;;;;;0.90;0.80;;;;;;;10.33;100.00;96127.34;5036648;28;20212;-67
2021/05/18 07:08:03;;;;;;;1.23;0.90;;;;;;;10.31;100.00;96131.16;5038264;28;20254;-67
2021/05/18 07:10:29;;;;;;;1.53;1.10;;;;;;;10.35;100.00;96137.69;5038433;28;20245;-67
2021/05/18 07:12:55;;;;;;;1.03;0.90;;;;;;;10.25;100.00;96134.50;5038588;28;20217;-68
2021/05/18 07:15:21;;;;;;;1.80;1.20;;;;;;;10.18;100.00;96135.38;5037555;28;20347;-68
2021/05/18 07:17:47;;;;;;;2.87;0.90;;;;;;;10.00;100.00;96138.28;5038914;28;20212;-68
2021/05/18 07:20:14;;;;;;;2.67;0.97;;;;;;;9.94;100.00;96144.25;5038290;28;20284;-68
2021/05/18 07:22:41;;;;;;;3.43;0.87;;;;;;;9.90;100.00;96139.50;5037761;28;20391;-67
2021/05/18 07:25:08;;;;;;;4.60;0.83;;;;;;;9.91;100.00;96138.50;5037320;28;20208;-68
2021/05/18 07:27:34;;;;;;;1.40;1.00;;;;;;;10.01;100.00;96145.19;5038925;28;20201;-68
2021/05/18 07:30:00;;;;;;;2.07;0.90;;;;;;;10.10;100.00;96149.41;5037872;28;20597;-67
2021/05/18 07:32:26;;;;;;;1.20;0.90;;;;;;;10.16;100.00;96151.34;5037785;28;20228;-67
2021/05/18 07:34:54;;;;;;;0.97;0.90;;;;;;;10.17;100.00;96155.63;5037926;28;20209;-68
2021/05/18 07:37:21;;;;;;;2.60;1.10;;;;;;;10.26;100.00;96151.09;5037477;28;20212;-67
2021/05/18 07:39:48;;;;;;;1.13;0.97;;;;;;;10.12;100.00;96146.59;5037428;28;20740;-67
2021/05/18 07:42:14;;;;;;;2.73;1.20;;;;;;;10.31;100.00;96140.84;5037687;28;20240;-68
2021/05/18 07:44:40;;;;;;;2.13;1.20;;;;;;;10.48;100.00;96148.44;5037888;28;20566;-68
2021/05/18 07:47:06;;;;;;;0.70;0.50;;;;;;;10.27;100.00;96147.47;5036589;28;20738;-68
2021/05/18 07:49:35;;;;;;;2.10;0.50;;;;;;;10.31;100.00;96151.38;5037535;28;20319;-67
2021/05/18 08:00:26;;;;;;;4.80;0.70;;;;;;;10.19;100.00;96148.34;5037320;28;20204;-68
2021/05/18 08:05:35;;;;;;;1.77;1.00;;;;;;;10.29;100.00;96146.31;5036246;28;20233;-67
2021/05/18 08:08:02;;;;;;;0.70;0.57;;;;;;;10.20;100.00;96150.00;5034507;28;20301;-67
2021/05/18 08:10:35;;;;;;;0.77;0.70;;;;;;;10.32;100.00;96153.84;5036788;28;20593;-68
2021/05/18 08:13:01;;;;;;;0.87;0.43;;;;;;;10.47;100.00;96152.88;5036598;28;20252;-67
2021/05/18 08:18:18;;;;;;;1.27;0.50;;;;;;;10.55;100.00;96149.34;5004975;28;20204;-67
2021/05/18 08:21:00;;;;;;;2.77;0.80;;;;;;;10.66;100.00;96151.56;5036980;28;20273;-68
2021/05/18 10:35:47;;;;;;;0.65;0.40;;;;;;;12.97;100.00;96100.53;5038574;28;20300;-68
2021/05/18 10:38:23;;;;;;;0.88;0.57;;;;;;;13.04;100.00;96101.38;5038546;28;20638;-69
2021/05/18 10:40:51;;;;;;;1.13;0.50;;;;;;;12.76;97.61;96112.16;5038748;28;20227;-68
2021/05/18 10:43:20;;;;;;;1.63;0.70;;;;;;;12.95;99.00;96109.66;5038903;28;20216;-69
2021/05/18 10:46:20;;;;;;;2.13;0.82;;;;;;;13.73;100.00;96106.34;5037857;28;20205;-69
2021/05/18 10:48:57;;;;;;;2.38;0.77;;;;;;;13.71;90.34;96105.75;5005652;28;20616;-69
2021/05/18 10:51:43;;;;;;;1.77;0.80;;;;;;;13.92;94.15;96107.44;5037885;28;20229;-69
2021/05/18 10:54:14;;;;;;;1.05;0.60;;;;;;;13.48;92.17;96109.75;5025657;28;20201;-68
2021/05/18 10:57:13;;;;;;;3.22;0.80;;;;;;;13.44;92.27;96097.91;5038310;28;20205;-69
2021/05/18 10:59:43;;;;;;;3.35;0.65;;;;;;;13.38;95.56;96102.16;5037701;28;20562;-69
2021/05/18 11:02:11;;;;;;;2.95;0.75;;;;;;;13.71;89.17;96092.50;5037820;28;20221;-69
2021/05/18 11:04:39;;;;;;;2.17;0.90;;;;;;;14.04;84.22;96088.91;5038017;28;20208;-69
2021/05/18 11:07:06;;;;;;;2.55;0.80;;;;;;;14.33;82.28;96074.50;5038375;28;20256;-68
2021/05/18 11:09:33;;;;;;;3.22;1.00;;;;;;;14.73;81.17;96072.44;5038478;28;20219;-69
2021/05/18 11:12:01;;;;;;;4.63;1.00;;;;;;;14.67;80.97;96073.25;5037669;28;20241;-69
2021/05/18 11:14:40;;;;;;;3.47;1.17;;;;;;;15.01;77.37;96059.72;5036368;28;20205;-69
2021/05/18 11:17:12;;;;;;;3.20;1.40;;;;;;;15.41;74.99;96055.94;5036726;28;20675;-69
2021/05/18 11:20:07;;;;;;;3.17;1.40;;;;;;;15.15;75.40;96053.38;5037423;28;20227;-69
2021/05/18 11:25:47;;;;;;;2.65;1.20;;;;;;;15.26;74.46;96060.69;5037286;28;20288;-69
2021/05/18 11:28:16;;;;;;;3.22;1.17;;;;;;;15.53;83.76;96047.13;5036626;28;20698;-69
2021/05/18 11:30:44;;;;;;;2.10;1.00;;;;;;;15.89;79.50;96040.16;5036618;28;20663;-69
2021/05/18 11:33:11;;;;;;;3.53;1.17;;;;;;;16.00;74.21;96044.78;5037222;28;20208;-69
2021/05/18 11:35:38;;;;;;;5.45;1.00;;;;;;;16.06;68.69;96043.94;5035666;28;20201;-69
2021/05/18 11:38:07;;;;;;;3.25;1.30;;;;;;;16.56;78.18;96045.63;5036340;28;20209;-70
2021/05/18 11:40:47;;;;;;;2.95;0.85;;;;;;;16.84;68.62;96029.97;5037092;28;20225;-70
2021/05/18 11:43:22;;;;;;;2.33;1.05;;;;;;;15.67;69.33;96042.53;5037309;28;20211;-69
2021/05/18 11:45:50;;;;;;;4.65;1.00;;;;;;;15.15;70.14;96039.25;5036692;28;20205;-69
2021/05/18 11:48:19;;;;;;;2.08;0.95;;;;;;;14.87;72.72;96042.22;5037914;28;20747;-69
2021/05/18 11:50:46;;;;;;;1.00;0.70;;;;;;;14.91;75.89;96039.97;5037208;28;20282;-68
2021/05/18 11:53:33;;;;;;;2.13;0.85;;;;;;;14.80;74.70;96041.44;5037103;28;20197;-68
2021/05/18 11:55:59;;;;;;;1.13;0.75;;;;;;;14.13;76.70;96052.50;5036568;28;20235;-69
2021/05/18 11:58:26;;;;;;;1.30;0.50;;;;;;;13.89;76.83;96066.28;5037380;28;20205;-70
2021/05/18 12:00:52;;;;;;;2.15;0.90;;;;;;;13.53;78.41;96081.66;5036735;28;20229;-67
2021/05/18 12:03:19;;;;;;;1.98;0.68;;;;;;;12.57;83.21;96105.72;5036563;28;20205;-68
2021/05/18 12:05:53;;;;;;;1.70;0.50;;;;;;;10.17;100.00;96155.63;5035824;28;20216;-66
2021/05/18 12:08:30;;;;;;;2.57;0.60;;;;;;;9.42;100.00;96128.44;5036537;28;20209;-67
2021/05/18 12:11:10;;;;;;;3.90;0.50;;;;;;;9.10;100.00;96126.81;5037315;28;21282;-68
2021/05/18 12:13:36;;;;;;;0.70;0.40;;;;;;;8.97;100.00;96106.50;5037251;28;20219;-68
2021/05/18 12:16:04;;;;;;;5.93;0.53;;;;;;;9.00;100.00;96103.50;5036212;28;20679;-69
2021/05/18 12:18:33;;;;;;;0.90;0.50;;;;;;;9.06;100.00;96103.66;5037394;28;20204;-69
2021/05/18 12:21:03;;;;;;;1.23;0.50;;;;;;;9.31;100.00;96107.81;5037095;28;20225;-69
2021/05/18 12:23:30;;;;;;;3.13;0.73;;;;;;;9.37;100.00;96101.88;5036470;28;20658;-69
2021/05/18 12:26:11;;;;;;;1.53;0.53;;;;;;;9.62;100.00;96103.34;5036243;28;20201;-69
2021/05/18 12:28:37;;;;;;;2.93;0.80;;;;;;;9.79;100.00;96103.06;5037097;28;20205;-68
2021/05/18 12:31:06;;;;;;;2.07;0.60;;;;;;;9.68;100.00;96101.66;5036505;28;20232;-69
2021/05/18 12:33:37;;;;;;;2.97;1.00;;;;;;;9.88;100.00;96102.84;5036805;28;20237;-69
2021/05/18 12:36:05;;;;;;;2.43;1.03;;;;;;;10.14;100.00;96094.59;5036533;28;20220;-69
2021/05/18 12:38:31;;;;;;;4.27;1.40;;;;;;;10.13;100.00;96109.59;5036691;28;20220;-69
2021/05/18 12:41:03;;;;;;;7.13;1.83;;;;;;;10.24;100.00;96111.78;5036411;28;20224;-69
2021/05/18 12:43:39;;;;;;;8.27;2.50;;;;;;;10.23;100.00;96102.25;5036633;28;20209;-69
2021/05/18 12:46:08;;;;;;;10.33;4.20;;;;;;;10.25;100.00;96105.53;5035734;28;20286;-69
2021/05/18 12:48:37;;;;;;;2.33;1.30;;;;;;;10.13;100.00;96106.97;5036561;28;20282;-69
2021/05/18 12:51:16;;;;;;;3.57;0.90;;;;;;;10.18;100.00;96093.25;5036500;28;20229;-69
2021/05/18 12:53:42;;;;;;;2.80;0.80;;;;;;;10.35;100.00;96103.47;5036469;28;20211;-69
2021/05/18 12:56:12;;;;;;;3.00;0.80;;;;;;;10.54;100.00;96089.78;5035169;28;20212;-69
2021/05/18 12:58:38;;;;;;;0.83;0.60;;;;;;;10.77;100.00;96070.25;5036335;28;20197;-69
2021/05/18 13:01:09;;;;;;;3.33;1.27;;;;;;;10.84;100.00;96054.53;5036281;28;20229;-70
2021/05/18 13:03:38;;;;;;;3.73;1.70;;;;;;;10.94;100.00;96061.94;5036424;28;20240;-69
2021/05/18 13:06:05;;;;;;;5.77;2.03;;;;;;;11.00;100.00;96055.94;5035517;28;21421;-69
2021/05/18 13:08:33;;;;;;;4.70;2.20;;;;;;;11.45;100.00;96063.59;5036441;28;20266;-70
2021/05/18 13:11:10;;;;;;;4.87;1.10;;;;;;;11.76;100.00;96059.72;5035570;28;20237;-69
2021/05/18 13:13:52;;;;;;;1.77;0.97;;;;;;;12.08;100.00;96058.34;5036624;28;20220;-70
2021/05/18 13:16:20;;;;;;;2.03;0.90;;;;;;;12.03;100.00;96066.03;5035567;28;20205;-69
2021/05/18 13:18:56;;;;;;;3.57;0.90;;;;;;;12.46;100.00;96058.69;5035353;28;20205;-69
2021/05/18 13:21:26;;;;;;;2.40;1.20;;;;;;;12.48;100.00;96059.28;5036536;28;20224;-69
2021/05/18 13:26:42;;;;;;;2.30;0.60;;;;;;;12.07;99.84;96052.25;5035297;28;20201;-69
2021/05/18 13:29:12;;;;;;;1.57;0.83;;;;;;;12.34;100.00;96054.09;5036536;28;20198;-69
2021/05/18 13:31:39;;;;;;;1.13;0.73;;;;;;;12.26;100.00;96047.13;5036555;28;20225;-70
2021/05/18 13:34:07;;;;;;;1.70;0.73;;;;;;;12.17;100.00;96040.38;5035621;28;21178;-69
2021/05/18 13:36:33;;;;;;;4.07;0.97;;;;;;;12.46;100.00;96042.81;5035026;28;20216;-69
2021/05/18 13:39:00;;;;;;;1.70;1.17;;;;;;;13.47;100.00;96034.78;5036556;28;20209;-70
2021/05/18 13:41:26;;;;;;;0.98;0.60;;;;;;;14.22;93.34;96033.53;5035500;28;20225;-70
2021/05/18 13:43:52;;;;;;;4.20;0.70;;;;;;;14.82;89.35;96026.09;5036106;28;20320;-70
2021/05/18 13:46:18;;;;;;;1.90;0.40;;;;;;;14.93;77.02;96014.03;5035202;28;21255;-70
2021/05/18 13:48:44;;;;;;;0.60;0.40;;;;;;;15.61;78.41;96014.19;5035673;28;20300;-70
2021/05/18 13:51:14;;;;;;;1.50;0.60;;;;;;;15.73;75.94;96015.13;5035892;28;20687;-70
2021/05/18 13:53:40;;;;;;;0.60;0.60;;;;;;;15.22;75.17;96006.41;5036470;28;20211;-70
2021/05/18 13:56:06;;;;;;;2.50;0.60;;;;;;;15.76;77.56;95996.09;5035176;28;20251;-70
2021/05/18 13:58:32;;;;;;;1.52;0.85;;;;;;;15.78;76.02;95996.69;5035949;28;20198;-70
2021/05/18 14:00:58;;;;;;;1.17;0.50;;;;;;;15.42;77.69;95999.16;5037373;28;20226;-70
2021/05/18 14:03:24;;;;;;;2.05;0.70;;;;;;;14.49;76.80;95979.47;5039249;28;20251;-69
2021/05/18 14:05:51;;;;;;;0.90;0.40;;;;;;;14.68;88.24;95984.72;5038847;28;20279;-70
2021/05/18 14:08:23;;;;;;;0.93;0.80;;;;;;;14.38;87.12;95989.88;5039378;28;20668;-70
2021/05/18 14:10:52;;;;;;;0.60;0.50;;;;;;;13.98;81.88;95993.53;5039612;28;20237;-70
2021/05/18 14:13:18;;;;;;;2.90;0.40;;;;;;;13.76;81.02;95997.41;5038896;28;20958;-69
2021/05/18 14:15:44;;;;;;;3.70;0.80;;;;;;;14.33;84.23;95987.84;5038557;28;20215;-70
2021/05/18 14:18:12;;;;;;;2.03;0.98;;;;;;;14.32;81.22;95999.47;5038802;28;21057;-69
2021/05/18 14:20:39;;;;;;;1.13;1.00;;;;;;;14.08;76.99;95999.28;5038928;28;20221;-70
2021/05/18 14:23:05;;;;;;;3.28;1.10;;;;;;;13.62;79.83;96001.03;5039247;28;20208;-70
2021/05/18 14:25:33;;;;;;;0.50;0.50;;;;;;;13.44;79.30;96006.09;5038541;28;20208;-70
2021/05/18 14:27:59;;;;;;;0.80;0.40;;;;;;;13.30;79.23;96006.25;5038536;28;20943;-70
2021/05/18 14:30:25;;;;;;;1.83;0.65;;;;;;;13.25;78.46;95997.28;5039003;28;20260;-69
2021/05/18 14:32:52;;;;;;;0.60;0.50;;;;;;;13.33;88.52;95989.16;5039333;28;20201;-70
2021/05/18 14:35:18;;;;;;;0.75;0.50;;;;;;;13.20;79.71;95995.22;5037721;28;20209;-69
2021/05/18 14:37:48;;;;;;;1.00;0.50;;;;;;;13.03;80.29;96003.72;5038405;28;20205;-69
2021/05/18 14:40:28;;;;;;;0.73;0.47;;;;;;;13.03;79.66;96001.88;5039085;28;20205;-70
2021/05/18 14:42:57;;;;;;;0.80;0.50;;;;;;;13.35;78.75;96008.28;5039708;28;20201;-69
2021/05/18 14:45:26;;;;;;;0.70;0.50;;;;;;;13.98;76.04;95992.75;5037824;28;20244;-69
2021/05/18 14:48:10;;;;;;;2.65;0.50;;;;;;;13.76;74.74;95988.63;5038644;28;20221;-69
2021/05/18 14:53:46;;;;;;;1.30;0.50;;;;;;;13.45;72.60;95983.91;5038871;28;20246;-69
2021/05/18 14:56:13;;;;;;;0.40;0.40;;;;;;;13.43;72.94;95983.28;5037641;28;20659;-69
2021/05/18 14:58:39;;;;;;;0.50;0.50;;;;;;;13.44;74.93;95982.28;5038735;28;20224;-69
2021/05/18 15:01:05;;;;;;;1.65;0.47;;;;;;;13.08;74.42;95983.56;5038238;28;20217;-69
2021/05/18 15:03:33;;;;;;;1.00;0.50;;;;;;;13.11;77.57;95980.56;5038127;28;20205;-69
2021/05/18 15:06:00;;;;;;;0.95;0.40;;;;;;;13.09;77.74;95981.75;5037970;28;20205;-69
2021/05/18 15:08:27;;;;;;;0.77;0.40;;;;;;;13.06;77.20;95982.13;5038517;28;20223;-69
2021/05/18 15:10:56;;;;;;;2.20;0.40;;;;;;;13.18;79.81;95986.66;5037942;28;20255;-69
2021/05/18 15:13:22;;;;;;;0.45;0.40;;;;;;;13.24;79.36;95992.97;5036986;28;20680;-69
2021/05/18 15:15:49;;;;;;;0.40;0.40;;;;;;;13.34;78.29;95990.78;5037498;28;20205;-69
2021/05/18 15:18:16;;;;;;;1.85;0.50;;;;;;;13.64;71.99;95982.31;5038062;28;20209;-69
2021/05/18 15:20:42;;;;;;;1.00;0.80;;;;;;;13.80;70.14;95990.69;5037828;28;20236;-69
2021/05/18 15:23:08;;;;;;;1.50;0.70;;;;;;;13.46;68.95;95982.88;5038215;28;20201;-69
2021/05/18 15:25:34;;;;;;;1.95;0.80;;;;;;;13.69;69.03;95978.03;5037355;28;20258;-69
2021/05/18 15:28:00;;;;;;;1.25;0.77;;;;;;;14.00;68.65;95978.25;5037708;28;20287;-70
2021/05/18 15:30:26;;;;;;;0.73;0.63;;;;;;;14.11;66.85;95975.81;5037878;28;21140;-69
2021/05/18 15:32:53;;;;;;;1.23;0.63;;;;;;;13.98;67.07;95963.59;5035281;28;20259;-69
2021/05/18 15:35:19;;;;;;;0.77;0.50;;;;;;;13.75;66.93;95963.97;5034012;28;20217;-69
2021/05/18 15:37:45;;;;;;;2.00;0.82;;;;;;;13.73;67.75;95960.72;5037041;28;20292;-69
2021/05/18 15:40:13;;;;;;;2.58;0.50;;;;;;;13.35;68.29;95971.25;5037663;28;20201;-69
2021/05/18 15:42:39;;;;;;;1.33;0.60;;;;;;;13.32;66.17;95967.16;5037330;28;20267;-69
2021/05/18 15:45:06;;;;;;;0.40;0.35;;;;;;;13.55;68.19;95973.72;5036606;28;20288;-69
2021/05/18 15:47:33;;;;;;;2.45;1.38;;;;;;;13.54;65.38;95966.81;5038093;28;20304;-69
2021/05/18 15:50:00;;;;;;;0.80;0.50;;;;;;;13.55;64.66;95967.63;5036906;28;20205;-69
2021/05/18 15:52:26;;;;;;;0.98;0.88;;;;;;;13.47;64.09;95971.28;5036787;28;21286;-69
2021/05/18 15:54:52;;;;;;;2.08;0.43;;;;;;;13.68;63.71;95952.59;5038034;28;20267;-70
2021/05/18 15:57:18;;;;;;;0.25;0.25;;;;;;;13.86;62.67;95963.38;5036724;28;20220;-69
2021/05/18 15:59:49;;;;;;;0.30;0.30;;;;;;;14.32;61.93;95961.53;5036799;28;20581;-68